Latest Weather Observations for Cressy

IDT60801

Issued at 10:02 am EST Wednesday 6 May 2015 (issued every 30 minutes, with the page automatically refreshed every 10 minutes)

About weather observations | Map of weather stations | Latest weather observations for TAS | Other Formats
Station Details ID: 091306 Name: CRESSY RESEARCH STATION Lat: -41.73 Lon: 147.08 Height: 148.0 m
Data from the previous 72 hours. | See also: Recent months at Cressy
Date/Time
EST
Temp
°C
App
Temp
°C
Dew
Point
Rel
Hum
%
Delta-T
°C
Wind Press
QNH
hPa
Press
MSL
hPa
Rain
since 9 am
mm
Dir
 
Spd
km/h
Gust
km/h
Spd
kts
Gust
kts
06/10:00am 10.4 0.7 5.8 73 2.1 NW 46 63 25 34 - - 0.0
06/09:34am 9.7 0.5 5.5 75 1.9 NNW 43 61 23 33 - - 0.0
06/09:30am 9.9 0.7 5.5 74 2.0 NNW 43 56 23 30 - - 0.0
06/09:15am 10.0 1.6 5.4 73 2.1 NNW 39 57 21 31 - - 0.0
06/09:00am 9.3 1.9 4.9 74 2.0 NNW 33 44 18 24 - - 7.0
06/08:30am 8.4 4.0 4.8 78 1.6 N 17 24 9 13 - - 7.0
06/08:00am 7.7 0.7 3.9 77 1.7 NNW 30 39 16 21 - - 7.0
06/07:30am 7.2 0.5 3.4 77 1.6 NW 28 39 15 21 - - 7.0
06/07:00am 7.1 -0.6 3.5 78 1.5 NW 33 46 18 25 - - 7.0
06/06:30am 7.1 -0.4 3.3 77 1.6 NW 32 39 17 21 - - 7.0
06/06:00am 7.2 -0.9 3.4 77 1.6 NNW 35 46 19 25 - - 7.0
06/05:30am 7.5 -1.4 3.0 73 1.9 NNW 39 46 21 25 - - 7.0
06/05:00am 7.5 -0.3 2.8 72 2.0 NNW 33 43 18 23 - - 7.0
06/04:30am 7.7 -0.4 3.4 74 1.8 NNW 35 44 19 24 - - 7.0
06/04:00am 8.1 -1.1 3.6 73 1.9 NNW 41 52 22 28 - - 7.0
06/03:30am 8.1 -1.6 3.8 74 1.9 NW 44 56 24 30 - - 7.0
06/03:00am 8.3 -0.1 3.8 73 2.0 NW 37 52 20 28 - - 7.0
06/02:30am 8.4 -1.2 4.2 75 1.8 NW 44 57 24 31 - - 7.0
06/02:00am 8.7 -0.3 4.3 74 1.9 NW 41 54 22 29 - - 7.0
06/01:42am 9.2 0.5 4.2 71 2.2 NW 39 57 21 31 - - 7.0
06/01:30am 9.3 1.0 4.1 70 2.3 NW 37 50 20 27 - - 7.0
06/01:20am 9.3 1.1 4.7 73 2.1 NW 37 56 20 30 - - 7.0
06/01:00am 9.3 0.5 5.5 77 1.7 NW 41 52 22 28 - - 7.0
06/12:30am 9.2 0.5 5.8 79 1.6 NNW 41 54 22 29 - - 7.0
06/12:04am 9.8 1.4 5.6 75 1.9 NW 39 61 21 33 - - 7.0
06/12:00am 9.8 1.4 5.6 75 1.9 NW 39 52 21 28 - - 7.0
 
Date/Time
EST
Temp
°C
App
Temp
°C
Dew
Point
Rel
Hum
%
Delta-T
°C
Wind Press
QNH
hPa
Press
MSL
hPa
Rain
since 9 am
mm
Dir
 
Spd
km/h
Gust
km/h
Spd
kts
Gust
kts
05/11:44pm 10.0 1.3 5.8 75 1.9 NW 41 59 22 32 - - 7.0
05/11:30pm 10.2 0.2 6.0 75 2.0 NW 48 63 26 34 - - 7.0
05/11:00pm 10.3 2.4 6.1 75 2.0 NW 37 50 20 27 - - 7.0
05/10:44pm 10.8 1.5 5.8 71 2.3 NW 44 63 24 34 - - 7.0
05/10:30pm 10.8 2.2 6.4 74 2.1 NW 41 57 22 31 - - 7.0
05/10:06pm 10.7 2.9 6.8 77 1.9 NW 37 56 20 30 - - 7.0
05/10:00pm 10.8 2.7 6.9 77 1.9 NW 39 50 21 27 - - 7.0
05/09:30pm 10.9 3.6 7.2 78 1.8 NW 35 54 19 29 - - 7.0
05/09:22pm 11.0 3.7 7.3 78 1.8 NNW 35 54 19 29 - - 7.0
05/09:00pm 10.8 4.6 7.7 81 1.5 NNW 30 39 16 21 - - 7.0
05/08:30pm 10.9 4.3 7.8 81 1.5 NNW 32 43 17 23 - - 7.0
05/08:00pm 11.3 4.7 8.5 83 1.4 NNW 33 44 18 24 - - 7.0
05/07:40pm 11.2 4.2 8.6 84 1.3 NNW 35 54 19 29 - - 7.0
05/07:30pm 11.2 4.4 9.1 87 1.1 NNW 35 44 19 24 - - 7.0
05/07:00pm 11.3 4.2 9.6 89 0.9 NNW 37 54 20 29 - - 7.0
05/06:30pm 10.9 2.6 9.3 90 0.8 NNW 43 61 23 33 - - 6.6
05/06:02pm 10.2 1.6 9.0 92 0.6 NNW 44 63 24 34 - - 6.4
05/06:00pm 10.2 1.2 9.0 92 0.6 NNW 46 63 25 34 - - 6.4
05/05:30pm 9.8 -0.6 7.6 86 1.1 NNW 52 72 28 39 - - 6.0
05/05:17pm 9.6 -0.1 7.5 87 1.0 NNW 48 78 26 42 - - 6.0
05/05:00pm 9.4 1.0 7.5 88 0.9 NW 41 59 22 32 - - 6.0
05/04:36pm 9.1 -0.4 6.7 85 1.1 NNW 46 65 25 35 - - 5.8
05/04:30pm 9.2 -0.3 6.5 83 1.3 NNW 46 61 25 33 - - 5.6
05/04:00pm 9.8 0.5 7.7 87 1.0 NNW 46 69 25 37 - - 5.2
05/03:35pm 10.2 1.2 7.1 81 1.5 NNW 44 63 24 34 - - 4.8
05/03:30pm 10.1 0.7 7.0 81 1.5 NNW 46 59 25 32 - - 4.8
05/03:00pm 9.5 2.1 6.9 84 1.2 NW 35 56 19 30 - - 4.8
05/02:54pm 9.3 -0.2 6.9 85 1.1 NW 46 69 25 37 - - 4.8
05/02:36pm 12.1 3.6 6.8 70 2.6 NW 41 74 22 40 - - 3.6
05/02:35pm 12.1 4.3 6.8 70 2.6 NW 37 74 20 40 - - 3.6
05/02:33pm 11.9 5.0 7.2 73 2.3 NW 33 57 18 31 - - 3.6
05/02:30pm 11.4 4.7 7.5 77 1.9 NW 32 59 17 32 - - 3.6
05/02:00pm 12.2 1.8 6.0 66 2.9 NNW 50 69 27 37 - - 3.6
05/01:30pm 12.4 4.1 7.9 74 2.2 NNW 41 59 22 32 - - 3.6
05/01:29pm 12.2 3.5 7.7 74 2.2 NNW 43 59 23 32 - - 3.6
05/01:00pm 11.9 5.3 8.4 79 1.7 NNW 33 41 18 22 - - 3.6
05/12:30pm 10.9 1.1 8.7 86 1.1 NNW 50 69 27 37 - - 3.6
05/12:18pm 10.9 3.2 8.8 87 1.0 NNW 39 65 21 35 - - 3.4
05/12:00pm 11.7 4.8 8.7 82 1.5 NNW 35 48 19 26 - - 3.2
05/11:39am 11.6 5.7 9.0 84 1.3 N 30 48 16 26 - - 3.2
05/11:30am 11.4 6.0 9.5 88 1.0 N 28 41 15 22 - - 3.2
05/11:00am 11.2 4.4 9.3 88 1.0 NNW 35 48 19 26 - - 3.2
05/10:30am 11.7 3.5 10.4 92 0.7 NNW 44 57 24 31 - - 2.8
05/10:01am 12.3 3.4 10.7 90 0.8 NNW 48 67 26 36 - - 2.4
05/10:00am 12.3 3.1 10.9 91 0.7 NNW 50 67 27 36 - - 2.4
05/09:38am 12.9 6.2 11.1 89 1.0 N 37 59 20 32 - - 2.0
05/09:30am 12.7 6.9 11.6 93 0.6 N 33 46 18 25 - - 1.6
05/09:00am 12.8 7.3 11.9 94 0.5 N 32 54 17 29 - - 25.0
05/08:30am 12.6 7.5 11.8 95 0.4 N 30 48 16 26 - - 23.2
05/08:17am 12.6 7.4 11.7 94 0.5 N 30 48 16 26 - - 21.4
05/08:00am 12.7 6.9 11.4 92 0.7 N 33 50 18 27 - - 19.8
05/07:30am 12.5 6.7 11.4 93 0.6 N 33 54 18 29 - - 19.6
05/07:27am 12.6 6.9 11.3 92 0.7 N 32 54 17 29 - - 19.4
05/07:00am 12.8 7.1 11.7 93 0.6 N 33 48 18 26 - - 17.8
05/06:31am 12.6 7.1 11.7 94 0.5 N 32 50 17 27 - - 15.4
05/06:30am 12.7 7.0 11.8 94 0.5 N 33 50 18 27 - - 15.4
05/06:13am 12.8 8.0 11.7 93 0.6 N 28 46 15 25 - - 14.4
05/06:00am 12.7 7.9 11.8 94 0.5 N 28 43 15 23 - - 13.8
05/05:30am 12.5 9.3 11.9 96 0.3 N 20 30 11 16 - - 10.4
05/05:00am 12.4 9.3 11.6 95 0.4 N 19 30 10 16 - - 7.0
05/04:30am 12.5 9.2 11.6 94 0.5 N 20 33 11 18 - - 5.8
05/04:00am 13.0 9.9 12.1 94 0.5 N 20 30 11 16 - - 4.6
05/03:30am 13.1 10.3 12.5 96 0.3 NNW 19 26 10 14 - - 2.6
05/03:00am 13.1 10.0 12.3 95 0.4 NNW 20 26 11 14 - - 0.4
05/02:30am 13.3 9.0 12.2 93 0.6 NNW 26 37 14 20 - - 0.0
05/02:00am 13.1 10.2 12.2 94 0.5 NNW 19 24 10 13 - - 0.0
05/01:30am 12.7 9.1 11.8 94 0.5 NNW 22 30 12 16 - - 0.0
05/01:00am 13.0 7.9 11.9 93 0.6 NNW 30 39 16 21 - - 0.0
05/12:30am 12.8 8.6 11.2 90 0.8 NW 24 33 13 18 - - 0.0
05/12:00am 12.3 10.1 10.7 90 0.8 NW 13 15 7 8 - - 0.0
 
Date/Time
EST
Temp
°C
App
Temp
°C
Dew
Point
Rel
Hum
%
Delta-T
°C
Wind Press
QNH
hPa
Press
MSL
hPa
Rain
since 9 am
mm
Dir
 
Spd
km/h
Gust
km/h
Spd
kts
Gust
kts
04/11:30pm 12.1 9.8 10.3 89 0.9 NNW 13 17 7 9 - - 0.0
04/11:00pm 12.5 9.4 10.4 87 1.1 NW 17 20 9 11 - - 0.0
04/10:30pm 11.5 9.1 9.9 90 0.8 NW 13 15 7 8 - - 0.0
04/10:00pm 11.0 8.9 9.8 92 0.6 NNW 11 15 6 8 - - 0.0
04/09:30pm 10.9 8.3 9.5 91 0.7 NNW 13 15 7 8 - - 0.0
04/09:00pm 11.5 8.6 9.8 89 0.9 NNW 15 20 8 11 - - 0.0
04/08:30pm 11.6 8.8 9.9 89 0.9 NNW 15 19 8 10 - - 0.0
04/08:00pm 11.5 8.6 9.8 89 0.9 NNW 15 19 8 10 - - 0.0
04/07:30pm 11.4 9.6 9.5 88 1.0 NNW 9 15 5 8 - - 0.0
04/07:00pm 11.9 9.7 9.5 85 1.2 N 11 15 6 8 - - 0.0
04/06:30pm 12.1 8.8 9.5 84 1.3 NNW 17 20 9 11 - - 0.0
04/06:00pm 12.5 9.9 9.3 81 1.6 NNW 13 19 7 10 - - 0.0
04/05:30pm 12.9 10.2 9.0 77 2.0 NNW 13 17 7 9 - - 0.0
04/05:00pm 13.4 10.2 8.5 72 2.5 NNW 15 20 8 11 - - 0.0
04/04:30pm 14.7 11.1 8.4 66 3.2 NW 17 24 9 13 - - 0.0
04/04:00pm 15.2 10.9 8.0 62 3.6 NW 20 30 11 16 - - 0.0
04/03:30pm 14.8 10.6 8.1 64 3.4 NW 20 28 11 15 - - 0.0
04/03:00pm 15.8 10.5 8.3 61 3.8 NW 26 35 14 19 - - 0.0
04/02:30pm 15.6 9.9 8.4 62 3.7 NW 28 37 15 20 - - 0.0
04/02:00pm 15.3 9.5 8.1 62 3.6 NNW 28 35 15 19 - - 0.0
04/01:30pm 15.2 10.7 8.7 65 3.3 NNW 22 30 12 16 - - 0.0
04/01:00pm 14.8 10.2 8.3 65 3.3 NNW 22 28 12 15 - - 0.0
04/12:30pm 14.9 10.0 8.4 65 3.3 NNW 24 30 13 16 - - 0.0
04/12:00pm 15.1 10.7 8.8 66 3.2 NNW 22 32 12 17 - - 0.0
04/11:30am 15.0 11.0 8.9 67 3.1 NNW 20 30 11 16 - - 0.0
04/11:00am 13.8 8.5 8.4 70 2.7 NNW 26 33 14 18 - - 0.0
04/10:30am 14.0 10.4 9.8 76 2.2 NNW 19 24 10 13 - - 0.0
04/10:00am 13.2 11.3 10.4 83 1.5 WNW 11 17 6 9 - - 0.0
04/09:30am 12.9 11.1 10.8 87 1.1 N 11 19 6 10 - - 0.0
04/09:00am 11.9 10.5 11.0 94 0.5 N 9 15 5 8 - - 0.0
04/08:30am 10.8 10.6 10.5 98 0.2 NNW 2 7 1 4 - - 0.0
04/08:00am 10.4 10.5 10.1 98 0.2 CALM 0 0 0 0 - - 0.0
04/07:30am 10.2 10.3 10.0 99 0.1 CALM 0 0 0 0 - - 0.0
04/07:00am 10.0 10.0 9.9 99 0.1 CALM 0 0 0 0 - - 0.0
04/06:30am 10.0 10.0 9.9 99 0.1 CALM 0 0 0 0 - - 0.0
04/06:00am 9.9 9.1 9.8 99 0.1 NNW 4 6 2 3 - - 0.0
04/05:30am 10.0 8.6 9.7 98 0.2 N 7 11 4 6 - - 0.0
04/05:00am 10.0 8.8 9.7 98 0.2 NNW 6 9 3 5 - - 0.0
04/04:30am 9.8 8.6 9.5 98 0.2 NNE 6 7 3 4 - - 0.0
04/04:00am 9.6 8.1 9.1 97 0.2 NNE 7 11 4 6 - - 0.0
04/03:30am 9.7 8.2 9.1 96 0.3 NE 7 9 4 5 - - 0.0
04/03:00am 9.8 9.6 9.2 96 0.3 CALM 0 0 0 0 - - 0.0
04/02:30am 10.1 9.7 9.6 97 0.3 NNE 2 7 1 4 - - 0.0
04/02:00am 10.3 9.2 10.0 98 0.2 NE 6 7 3 4 - - 0.0
04/01:30am 10.2 8.5 9.9 98 0.2 N 9 11 5 6 - - 0.0
04/01:00am 9.9 8.7 9.6 98 0.2 N 6 9 3 5 - - 0.0
04/12:30am 9.9 8.2 9.8 99 0.1 N 9 11 5 6 - - 0.0
04/12:00am 9.1 7.5 8.8 98 0.1 WNW 7 9 4 5 - - 0.0
 
Date/Time
EST
Temp
°C
App
Temp
°C
Dew
Point
Rel
Hum
%
Delta-T
°C
Wind Press
QNH
hPa
Press
MSL
hPa
Rain
since 9 am
mm
Dir
 
Spd
km/h
Gust
km/h
Spd
kts
Gust
kts
03/11:30pm 9.5 9.3 8.9 96 0.3 CALM 0 6 0 3 - - 0.0
03/11:00pm 9.8 8.4 9.0 95 0.4 SE 6 9 3 5 - - 0.0
03/10:30pm 10.4 9.1 9.8 96 0.3 S 7 9 4 5 - - 0.0
03/10:00pm 9.8 8.5 9.2 96 0.3 SSW 6 11 3 6 - - 0.0
03/09:30pm 9.6 9.4 9.1 97 0.2 CALM 0 7 0 4 - - 0.0
03/09:00pm 9.4 9.2 9.1 98 0.1 CALM 0 0 0 0 - - 0.0
03/08:30pm 8.5 7.9 7.3 92 0.6 CALM 0 0 0 0 - - 0.0
03/08:00pm 10.3 9.7 9.1 92 0.6 N 2 7 1 4 - - 0.0
03/07:30pm 10.9 8.7 9.3 90 0.8 NNE 11 13 6 7 - - 0.0
03/07:00pm 11.4 9.2 9.5 88 1.0 NNE 11 15 6 8 - - 0.0
03/06:30pm 11.8 9.7 9.7 87 1.1 NE 11 15 6 8 - - 0.0
03/06:00pm 12.0 9.8 9.4 84 1.3 NNE 11 15 6 8 - - 0.0
03/05:30pm 13.1 11.1 10.1 82 1.6 NNE 11 13 6 7 - - 0.0
03/05:00pm 14.3 11.2 10.3 77 2.1 NNW 17 20 9 11 - - 0.0
03/04:30pm 15.5 12.3 10.1 70 2.8 NNW 17 24 9 13 - - 0.0
03/04:00pm 15.5 12.0 10.1 70 2.8 NNW 19 22 10 12 - - 0.0
03/03:30pm 15.8 12.5 9.5 66 3.3 N 17 24 9 13 - - 0.0
03/03:00pm 16.3 13.0 9.7 65 3.5 NNW 17 24 9 13 - - 0.0
03/02:30pm 16.0 12.2 9.2 64 3.5 NNW 19 26 10 14 - - 0.0
03/02:00pm 16.4 12.4 9.1 62 3.8 NNW 20 28 11 15 - - 0.0
03/01:30pm 17.2 13.2 9.1 59 4.2 NNW 20 26 11 14 - - 0.0
03/01:00pm 15.9 12.4 8.6 62 3.7 NNW 17 22 9 12 - - 0.0
03/12:30pm 16.1 13.1 9.3 64 3.5 NNW 15 22 8 12 - - 0.0
03/12:00pm 15.3 12.1 8.5 64 3.5 NNW 15 22 8 12 - - 0.0
03/11:30am 14.8 11.7 9.0 68 3.0 NW 15 24 8 13 - - 0.0
03/11:00am 14.3 11.7 9.5 73 2.5 NNW 13 20 7 11 - - 0.0
03/10:30am 13.6 11.6 10.2 80 1.8 NNW 11 17 6 9 - - 0.0

Other Formats:

Comma delimited format used in spreadsheet applications
http://www.bom.gov.au/fwo/IDT60801/IDT60801.95969.axf

JavaScript Object Notation format (JSON) in row-major order
http://www.bom.gov.au/fwo/IDT60801/IDT60801.95969.json